createdAt,value
2019-02-06T00:01:48.963Z,986.95
2019-02-06T00:02:49.192Z,986.93
2019-02-06T00:04:53.356Z,986.94
2019-02-06T00:05:53.592Z,986.94
2019-02-06T00:07:57.756Z,986.99
2019-02-06T00:08:57.989Z,986.97
2019-02-06T00:11:02.141Z,986.93
2019-02-06T00:12:02.365Z,986.94
2019-02-06T00:14:06.537Z,986.97
2019-02-06T00:15:06.793Z,986.97
2019-02-06T00:16:59.871Z,986.94
2019-02-06T00:18:00.076Z,986.96
2019-02-06T00:20:04.243Z,986.88
2019-02-06T00:21:04.479Z,986.88
2019-02-06T00:23:08.644Z,986.86
2019-02-06T00:24:08.877Z,986.85
2019-02-06T00:26:13.027Z,986.82
2019-02-06T00:27:13.258Z,986.85
2019-02-06T00:29:17.425Z,986.86
2019-02-06T00:30:17.658Z,986.85
2019-02-06T00:32:21.809Z,986.86
2019-02-06T00:33:22.034Z,986.90
2019-02-06T00:35:26.274Z,986.88
2019-02-06T00:36:26.446Z,986.94
2019-02-06T00:38:30.609Z,986.94
2019-02-06T00:39:30.845Z,986.98
2019-02-06T00:41:34.991Z,986.99
2019-02-06T00:42:35.220Z,986.95
2019-02-06T00:44:39.386Z,986.93
2019-02-06T00:45:39.619Z,986.92
2019-02-06T00:47:43.763Z,986.92
2019-02-06T00:48:43.995Z,986.93
2019-02-06T00:50:48.164Z,986.94
2019-02-06T00:51:48.400Z,986.93
2019-02-06T00:53:52.575Z,986.86
2019-02-06T00:54:52.809Z,986.86
2019-02-06T00:56:46.895Z,986.80
2019-02-06T00:57:47.131Z,986.84
2019-02-06T00:59:51.304Z,986.82
2019-02-06T01:00:51.540Z,986.80
2019-02-06T01:02:55.689Z,986.80
2019-02-06T01:03:56.027Z,986.82
2019-02-06T01:06:00.099Z,986.82
2019-02-06T01:07:00.333Z,986.83
2019-02-06T01:09:04.479Z,986.84
2019-02-06T01:10:04.718Z,986.87
2019-02-06T01:12:08.885Z,986.85
2019-02-06T01:13:09.195Z,986.86
2019-02-06T01:15:13.306Z,986.83
2019-02-06T01:16:13.529Z,986.79
2019-02-06T01:18:17.679Z,986.80
2019-02-06T01:19:17.911Z,986.80
2019-02-06T01:21:22.074Z,986.80
2019-02-06T01:22:22.304Z,986.81
2019-02-06T01:24:26.458Z,986.76
2019-02-06T01:25:26.688Z,986.73
2019-02-06T01:27:19.785Z,986.67
2019-02-06T01:28:20.018Z,986.69
2019-02-06T01:30:24.184Z,986.65
2019-02-06T01:31:24.413Z,986.66
2019-02-06T01:33:28.564Z,986.61
2019-02-06T01:34:28.803Z,986.65
2019-02-06T01:36:32.965Z,986.59
2019-02-06T01:37:33.195Z,986.60
2019-02-06T01:39:37.339Z,986.60
2019-02-06T01:40:37.571Z,986.60
2019-02-06T01:42:41.734Z,986.68
2019-02-06T01:43:41.964Z,986.63
2019-02-06T01:45:46.141Z,986.65
2019-02-06T01:46:46.363Z,986.62
2019-02-06T01:48:50.518Z,986.54
2019-02-06T01:49:50.748Z,986.52
2019-02-06T01:51:54.913Z,986.52
2019-02-06T01:52:55.142Z,986.53
2019-02-06T01:54:59.286Z,986.53
2019-02-06T01:55:59.519Z,986.52
2019-02-06T01:58:03.687Z,986.56
2019-02-06T01:59:03.910Z,986.54
2019-02-06T02:01:08.243Z,986.57
2019-02-06T02:02:08.245Z,986.51
2019-02-06T02:04:12.397Z,986.54
2019-02-06T02:05:12.634Z,986.55
2019-02-06T02:07:05.714Z,986.50
2019-02-06T02:08:05.944Z,986.49
2019-02-06T02:10:10.099Z,986.47
2019-02-06T02:11:10.319Z,986.48
2019-02-06T02:13:14.482Z,986.44
2019-02-06T02:14:14.716Z,986.43
2019-02-06T02:16:18.884Z,986.44
2019-02-06T02:17:19.114Z,986.44
2019-02-06T02:19:23.292Z,986.38
2019-02-06T02:20:23.521Z,986.38
2019-02-06T02:22:27.692Z,986.30
2019-02-06T02:23:27.939Z,986.32
2019-02-06T02:25:32.072Z,986.34
2019-02-06T02:26:32.306Z,986.29
2019-02-06T02:28:36.507Z,986.25
2019-02-06T02:29:36.707Z,986.29
2019-02-06T02:31:40.856Z,986.23
2019-02-06T02:32:41.090Z,986.24
2019-02-06T02:34:45.277Z,986.23
2019-02-06T02:35:45.493Z,986.22
2019-02-06T02:37:49.664Z,986.23
2019-02-06T02:38:49.896Z,986.23
2019-02-06T02:40:54.039Z,986.18
2019-02-06T02:41:54.304Z,986.17
2019-02-06T02:43:58.444Z,986.12
2019-02-06T02:44:58.679Z,986.13
2019-02-06T02:46:51.750Z,986.08
2019-02-06T02:47:51.978Z,986.10
2019-02-06T02:49:56.150Z,986.10
2019-02-06T02:50:56.381Z,986.12
2019-02-06T02:53:00.548Z,986.15
2019-02-06T02:54:00.784Z,986.12
2019-02-06T02:56:04.930Z,986.11
2019-02-06T02:57:05.171Z,986.09
2019-02-06T02:59:09.463Z,986.16
2019-02-06T03:00:09.569Z,986.17
2019-02-06T03:02:13.720Z,986.16
2019-02-06T03:03:13.947Z,986.14
2019-02-06T03:05:18.121Z,986.05
2019-02-06T03:06:27.700Z,986.09
2019-02-06T03:08:22.506Z,986.05
2019-02-06T03:09:22.740Z,986.05
2019-02-06T03:11:26.876Z,986.03
2019-02-06T03:12:27.111Z,986.04
2019-02-06T03:14:31.273Z,985.96
2019-02-06T03:15:31.499Z,985.93
2019-02-06T03:17:24.570Z,985.92
2019-02-06T03:18:24.802Z,985.90
2019-02-06T03:20:28.972Z,985.90
2019-02-06T03:21:29.198Z,985.90
2019-02-06T03:23:40.892Z,985.86
2019-02-06T03:24:33.550Z,985.89
2019-02-06T03:26:37.692Z,985.82
2019-02-06T03:27:37.935Z,985.84
2019-02-06T03:29:42.087Z,985.80
2019-02-06T03:30:42.319Z,985.74
2019-02-06T03:32:46.479Z,985.77
2019-02-06T03:33:46.686Z,985.73
2019-02-06T03:35:50.847Z,985.67
2019-02-06T03:36:51.254Z,985.70
2019-02-06T03:38:55.241Z,985.72
2019-02-06T03:39:55.445Z,985.69
2019-02-06T03:41:59.605Z,985.65
2019-02-06T03:42:59.872Z,985.65
2019-02-06T03:45:04.031Z,985.66
2019-02-06T03:46:04.251Z,985.65
2019-02-06T03:48:08.376Z,985.67
2019-02-06T03:49:08.612Z,985.68
2019-02-06T03:51:12.781Z,985.71
2019-02-06T03:52:13.012Z,985.72
2019-02-06T03:54:17.459Z,985.69
2019-02-06T03:55:17.464Z,985.67
2019-02-06T03:57:10.532Z,985.68
2019-02-06T03:58:10.779Z,985.65
2019-02-06T04:00:14.933Z,985.69
2019-02-06T04:01:15.165Z,985.68
2019-02-06T04:03:19.303Z,985.67
2019-02-06T04:04:19.550Z,985.68
2019-02-06T04:06:23.704Z,985.69
2019-02-06T04:07:23.941Z,985.66
2019-02-06T04:09:28.093Z,985.74
2019-02-06T04:10:28.313Z,985.76
2019-02-06T04:12:32.477Z,985.71
2019-02-06T04:13:32.708Z,985.72
2019-02-06T04:15:36.869Z,985.74
2019-02-06T04:16:37.094Z,985.74
2019-02-06T04:18:41.237Z,985.75
2019-02-06T04:19:41.460Z,985.79
2019-02-06T04:21:45.641Z,985.82
2019-02-06T04:22:45.863Z,985.82
2019-02-06T04:24:51.750Z,985.86
2019-02-06T04:25:50.244Z,985.91
2019-02-06T04:27:54.391Z,985.96
2019-02-06T04:28:54.643Z,985.97
2019-02-06T04:30:58.794Z,985.96
2019-02-06T04:31:59.023Z,985.97
2019-02-06T04:34:03.197Z,985.90
2019-02-06T04:35:03.399Z,985.93
2019-02-06T04:37:06.248Z,985.90
2019-02-06T04:37:56.722Z,985.91
2019-02-06T04:40:00.873Z,985.88
2019-02-06T04:41:01.102Z,985.82
2019-02-06T04:43:05.263Z,985.84
2019-02-06T04:44:05.496Z,985.81
2019-02-06T04:46:09.679Z,985.79
2019-02-06T04:47:09.909Z,985.78
2019-02-06T04:49:15.058Z,985.76
2019-02-06T04:50:15.284Z,985.76
2019-02-06T04:52:19.455Z,985.80
2019-02-06T04:53:19.693Z,985.78
2019-02-06T04:55:23.871Z,985.83
2019-02-06T04:56:24.084Z,985.83
2019-02-06T04:58:28.234Z,985.77
2019-02-06T04:59:28.474Z,985.80
2019-02-06T05:01:32.933Z,985.73
2019-02-06T05:02:32.816Z,985.75
2019-02-06T05:04:36.964Z,985.70
2019-02-06T05:05:37.205Z,985.72
2019-02-06T05:07:41.360Z,985.69
2019-02-06T05:08:41.590Z,985.69
2019-02-06T05:10:45.753Z,985.68
2019-02-06T05:11:45.988Z,985.73
2019-02-06T05:13:50.136Z,985.69
2019-02-06T05:14:50.364Z,985.61
2019-02-06T05:16:43.453Z,985.60
2019-02-06T05:17:43.685Z,985.59
2019-02-06T05:19:47.827Z,985.60
2019-02-06T05:20:48.094Z,985.52
2019-02-06T05:22:52.213Z,985.55
2019-02-06T05:23:52.431Z,985.52
2019-02-06T05:25:56.623Z,985.52
2019-02-06T05:26:56.836Z,985.50
2019-02-06T05:29:00.979Z,985.50
2019-02-06T05:30:01.210Z,985.50
2019-02-06T05:32:06.384Z,985.48
2019-02-06T05:33:06.619Z,985.45
2019-02-06T05:35:10.771Z,985.46
2019-02-06T05:36:11.003Z,985.47
2019-02-06T05:38:15.169Z,985.48
2019-02-06T05:39:15.398Z,985.44
2019-02-06T05:41:19.561Z,985.48
2019-02-06T05:42:19.791Z,985.45
2019-02-06T05:44:23.934Z,985.43
2019-02-06T05:45:24.171Z,985.42
2019-02-06T05:47:17.255Z,985.47
2019-02-06T05:48:17.505Z,985.44
2019-02-06T05:50:21.630Z,985.37
2019-02-06T05:51:21.865Z,985.38
2019-02-06T05:53:26.021Z,985.40
2019-02-06T05:54:26.270Z,985.38
2019-02-06T05:56:30.442Z,985.39
2019-02-06T05:57:30.653Z,985.41
2019-02-06T05:59:34.784Z,985.36
2019-02-06T06:00:35.038Z,985.36
2019-02-06T06:02:39.191Z,985.38
2019-02-06T06:03:39.406Z,985.39
2019-02-06T06:05:43.549Z,985.39
2019-02-06T06:06:43.781Z,985.40
2019-02-06T06:08:47.935Z,985.44
2019-02-06T06:09:48.166Z,985.45
2019-02-06T06:11:52.333Z,985.41
2019-02-06T06:12:52.551Z,985.41
2019-02-06T06:14:56.704Z,985.39
2019-02-06T06:15:56.933Z,985.43
2019-02-06T06:18:01.140Z,985.47
2019-02-06T06:19:01.348Z,985.43
2019-02-06T06:21:05.491Z,985.52
2019-02-06T06:22:05.727Z,985.51
2019-02-06T06:24:10.399Z,985.52
2019-02-06T06:25:10.630Z,985.49
2019-02-06T06:27:04.216Z,985.47
2019-02-06T06:28:04.458Z,985.45
2019-02-06T06:30:09.101Z,985.48
2019-02-06T06:31:09.367Z,985.50
2019-02-06T06:33:15.021Z,985.50
2019-02-06T06:34:15.258Z,985.47
2019-02-06T06:36:19.420Z,985.45
2019-02-06T06:37:19.653Z,985.47
2019-02-06T06:39:24.337Z,985.46
2019-02-06T06:40:24.573Z,985.47
2019-02-06T06:42:29.275Z,985.46
2019-02-06T06:43:29.468Z,985.39
2019-02-06T06:45:34.116Z,985.43
2019-02-06T06:46:34.356Z,985.43
2019-02-06T06:48:39.011Z,985.40
2019-02-06T06:49:39.258Z,985.38
2019-02-06T06:51:43.919Z,985.38
2019-02-06T06:52:44.118Z,985.37
2019-02-06T06:54:48.814Z,985.41
2019-02-06T06:55:49.014Z,985.40
2019-02-06T06:57:53.730Z,985.40
2019-02-06T06:58:53.922Z,985.36
2019-02-06T07:00:58.620Z,985.36
2019-02-06T07:01:58.803Z,985.41
2019-02-06T07:04:02.985Z,985.43
2019-02-06T07:05:05.579Z,985.38
2019-02-06T07:06:56.799Z,985.45
2019-02-06T07:08:08.830Z,985.42
2019-02-06T07:10:01.706Z,985.38
2019-02-06T07:11:01.986Z,985.39
2019-02-06T07:13:07.569Z,985.36
2019-02-06T07:14:07.802Z,985.38
2019-02-06T07:16:12.444Z,985.37
2019-02-06T07:17:12.673Z,985.37
2019-02-06T07:19:17.349Z,985.41
2019-02-06T07:20:17.564Z,985.44
2019-02-06T07:22:22.228Z,985.47
2019-02-06T07:23:22.443Z,985.48
2019-02-06T07:25:27.110Z,985.51
2019-02-06T07:26:27.343Z,985.50
2019-02-06T07:28:32.025Z,985.52
2019-02-06T07:29:32.231Z,985.49
2019-02-06T07:31:36.907Z,985.53
2019-02-06T07:32:37.110Z,985.52
2019-02-06T07:34:41.793Z,985.49
2019-02-06T07:35:42.013Z,985.50
2019-02-06T07:37:46.664Z,985.49
2019-02-06T07:38:46.882Z,985.53
2019-02-06T07:40:51.553Z,985.55
2019-02-06T07:41:51.785Z,985.49
2019-02-06T07:43:56.497Z,985.60
2019-02-06T07:44:56.707Z,985.56
2019-02-06T07:46:50.252Z,985.55
2019-02-06T07:47:50.482Z,985.60
2019-02-06T07:49:55.151Z,985.60
2019-02-06T07:50:55.379Z,985.54
2019-02-06T07:53:00.021Z,985.55
2019-02-06T07:54:00.304Z,985.55
2019-02-06T07:56:04.926Z,985.53
2019-02-06T07:57:05.164Z,985.56
2019-02-06T07:59:09.846Z,985.49
2019-02-06T08:00:10.061Z,985.50
2019-02-06T08:02:14.721Z,985.53
2019-02-06T08:03:14.943Z,985.51
2019-02-06T08:05:19.623Z,985.56
2019-02-06T08:06:19.839Z,985.58
2019-02-06T08:08:35.263Z,985.59
2019-02-06T08:09:24.713Z,985.63
2019-02-06T08:11:29.396Z,985.67
2019-02-06T08:12:29.627Z,985.71
2019-02-06T08:14:34.289Z,985.81
2019-02-06T08:15:34.511Z,985.90
2019-02-06T08:17:39.178Z,985.95
2019-02-06T08:18:39.394Z,986.01
2019-02-06T08:20:44.082Z,986.08
2019-02-06T08:21:44.311Z,986.15
2019-02-06T08:23:48.470Z,986.32
2019-02-06T08:24:48.691Z,986.41
2019-02-06T08:26:42.315Z,986.53
2019-02-06T08:27:42.531Z,986.69
2019-02-06T08:29:47.193Z,986.98
2019-02-06T08:30:47.420Z,987.01
2019-02-06T08:32:51.578Z,986.84
2019-02-06T08:33:51.814Z,986.91
2019-02-06T08:35:55.983Z,986.97
2019-02-06T08:36:56.217Z,986.95
2019-02-06T08:39:00.369Z,987.08
2019-02-06T08:40:00.599Z,987.05
2019-02-06T08:42:04.772Z,986.81
2019-02-06T08:43:05.006Z,986.87
2019-02-06T08:45:09.177Z,986.60
2019-02-06T08:46:09.411Z,986.75
2019-02-06T08:48:13.562Z,986.79
2019-02-06T08:49:13.796Z,986.78
2019-02-06T08:51:17.967Z,986.84
2019-02-06T08:52:18.202Z,986.76
2019-02-06T08:54:22.375Z,986.71
2019-02-06T08:55:22.612Z,986.74
2019-02-06T08:57:15.695Z,986.87
2019-02-06T08:58:15.928Z,986.95
2019-02-06T09:00:20.098Z,986.71
2019-02-06T09:01:20.333Z,986.73
2019-02-06T09:03:24.490Z,986.73
2019-02-06T09:04:24.730Z,986.78
2019-02-06T09:06:28.906Z,986.51
2019-02-06T09:07:29.145Z,986.48
2019-02-06T09:09:33.323Z,986.47
2019-02-06T09:10:33.554Z,986.65
2019-02-06T09:12:37.732Z,986.85
2019-02-06T09:13:37.969Z,986.89
2019-02-06T09:15:42.142Z,986.82
2019-02-06T09:16:42.381Z,986.74
2019-02-06T09:18:46.536Z,986.76
2019-02-06T09:19:46.773Z,986.68
2019-02-06T09:21:50.956Z,986.40
2019-02-06T09:22:51.196Z,986.44
2019-02-06T09:24:55.379Z,986.45
2019-02-06T09:25:57.547Z,986.42
2019-02-06T09:27:59.766Z,986.42
2019-02-06T09:29:00.008Z,986.44
2019-02-06T09:31:04.178Z,986.38
2019-02-06T09:32:04.418Z,986.30
2019-02-06T09:34:09.684Z,986.34
2019-02-06T09:35:08.814Z,986.34
2019-02-06T09:37:04.960Z,986.27
2019-02-06T09:38:02.157Z,986.32
2019-02-06T09:40:06.319Z,986.28
2019-02-06T09:41:06.558Z,986.24
2019-02-06T09:43:10.747Z,986.23
2019-02-06T09:44:10.985Z,986.23
2019-02-06T09:46:15.657Z,986.31
2019-02-06T09:47:15.890Z,986.25
2019-02-06T09:49:20.066Z,986.35
2019-02-06T09:50:20.289Z,986.41
2019-02-06T09:52:28.128Z,986.41
2019-02-06T09:53:24.709Z,986.47
2019-02-06T09:55:29.372Z,986.49
2019-02-06T09:56:29.637Z,986.47
2019-02-06T09:58:35.319Z,986.54
2019-02-06T09:59:35.525Z,986.54
2019-02-06T10:01:40.262Z,986.50
2019-02-06T10:02:40.458Z,986.36
2019-02-06T10:04:45.209Z,986.41
2019-02-06T10:05:45.382Z,986.39
2019-02-06T10:07:50.126Z,986.35
2019-02-06T10:08:50.303Z,986.36
2019-02-06T10:10:55.019Z,986.36
2019-02-06T10:11:55.281Z,986.37
2019-02-06T10:14:00.918Z,986.34
2019-02-06T10:15:01.124Z,986.35
2019-02-06T10:16:54.796Z,986.31
2019-02-06T10:17:55.010Z,986.33
2019-02-06T10:19:59.633Z,986.30
2019-02-06T10:20:59.991Z,986.30
2019-02-06T10:23:05.567Z,986.16
2019-02-06T10:24:05.766Z,986.25
2019-02-06T10:26:10.458Z,986.27
2019-02-06T10:27:10.653Z,986.24
2019-02-06T10:29:15.372Z,986.35
2019-02-06T10:30:15.650Z,986.33
2019-02-06T10:32:20.449Z,986.35
2019-02-06T10:33:20.678Z,986.29
2019-02-06T10:35:25.300Z,986.33
2019-02-06T10:36:25.550Z,986.30
2019-02-06T10:38:31.277Z,986.24
2019-02-06T10:39:34.748Z,986.25
2019-02-06T10:41:37.134Z,986.22
2019-02-06T10:42:37.367Z,986.21
2019-02-06T10:44:43.023Z,986.25
2019-02-06T10:45:43.279Z,986.27
2019-02-06T10:47:48.030Z,986.24
2019-02-06T10:48:48.180Z,986.23
2019-02-06T10:50:52.853Z,986.26
2019-02-06T10:51:53.062Z,986.25
2019-02-06T10:53:57.271Z,986.32
2019-02-06T10:54:57.494Z,986.25
2019-02-06T10:56:50.626Z,986.18
2019-02-06T10:57:50.824Z,986.14
2019-02-06T10:59:55.572Z,986.16
2019-02-06T11:00:55.754Z,986.11
2019-02-06T11:02:59.945Z,986.09
2019-02-06T11:04:00.185Z,986.02
2019-02-06T11:06:04.871Z,986.01
2019-02-06T11:07:08.009Z,985.91
2019-02-06T11:09:09.803Z,985.86
2019-02-06T11:10:10.041Z,985.79
2019-02-06T11:12:14.709Z,985.77
2019-02-06T11:13:14.956Z,985.71
2019-02-06T11:15:19.146Z,985.69
2019-02-06T11:16:19.383Z,985.65
2019-02-06T11:18:23.574Z,985.51
2019-02-06T11:19:23.822Z,985.52
2019-02-06T11:21:28.510Z,985.53
2019-02-06T11:22:28.730Z,985.50
2019-02-06T11:24:33.421Z,985.21
2019-02-06T11:25:33.664Z,985.11
2019-02-06T11:27:37.833Z,985.02
2019-02-06T11:28:38.079Z,985.04
2019-02-06T11:30:42.271Z,984.94
2019-02-06T11:31:42.560Z,984.96
2019-02-06T11:33:46.782Z,985.05
2019-02-06T11:34:46.981Z,985.06
2019-02-06T11:36:40.074Z,985.01
2019-02-06T11:37:40.318Z,985.03
2019-02-06T11:39:44.505Z,985.02
2019-02-06T11:40:44.776Z,985.04
2019-02-06T11:42:48.979Z,985.09
2019-02-06T11:43:49.225Z,985.02
2019-02-06T11:45:53.459Z,985.02
2019-02-06T11:46:53.700Z,985.00
2019-02-06T11:48:57.949Z,985.06
2019-02-06T11:49:58.247Z,985.06
2019-02-06T11:52:02.388Z,985.00
2019-02-06T11:53:02.630Z,984.97
2019-02-06T11:55:08.651Z,984.90
2019-02-06T11:56:07.060Z,984.92
2019-02-06T11:58:11.223Z,984.93
2019-02-06T11:59:11.473Z,984.96
2019-02-06T12:01:15.659Z,984.90
2019-02-06T12:02:15.901Z,984.85
2019-02-06T12:04:21.123Z,984.87
2019-02-06T12:05:21.425Z,984.96
2019-02-06T12:07:15.083Z,984.95
2019-02-06T12:08:15.521Z,984.86
2019-02-06T12:10:19.583Z,984.80
2019-02-06T12:11:19.880Z,984.82
2019-02-06T12:13:13.417Z,984.81
2019-02-06T12:14:13.666Z,984.87
2019-02-06T12:16:17.902Z,984.85
2019-02-06T12:17:18.558Z,984.80
2019-02-06T12:19:15.427Z,984.82
2019-02-06T12:20:15.740Z,984.76
2019-02-06T12:22:19.807Z,984.83
2019-02-06T12:23:31.628Z,984.73
2019-02-06T12:25:24.308Z,984.75
2019-02-06T12:26:24.603Z,984.76
2019-02-06T12:28:28.843Z,984.78
2019-02-06T12:29:29.055Z,984.70
2019-02-06T12:31:33.862Z,984.70
2019-02-06T12:32:34.085Z,984.62
2019-02-06T12:34:38.781Z,984.57
2019-02-06T12:35:39.028Z,984.59
2019-02-06T12:37:43.718Z,984.56
2019-02-06T12:38:53.086Z,984.51
2019-02-06T12:40:48.660Z,984.58
2019-02-06T12:41:48.951Z,984.50
2019-02-06T12:43:53.605Z,984.41
2019-02-06T12:44:53.894Z,984.34
2019-02-06T12:46:47.504Z,984.37
2019-02-06T12:47:47.801Z,984.38
2019-02-06T12:49:51.997Z,984.36
2019-02-06T12:50:52.331Z,984.42
2019-02-06T12:52:57.616Z,984.36
2019-02-06T12:53:57.151Z,984.35
2019-02-06T12:56:01.905Z,984.34
2019-02-06T12:57:02.159Z,984.30
2019-02-06T12:59:06.826Z,984.17
2019-02-06T13:00:07.067Z,984.11
2019-02-06T13:02:11.795Z,984.11
2019-02-06T13:03:12.056Z,984.09
2019-02-06T13:05:16.295Z,984.04
2019-02-06T13:06:16.524Z,984.03
2019-02-06T13:08:21.221Z,984.05
2019-02-06T13:09:21.454Z,984.01
2019-02-06T13:11:26.154Z,984.08
2019-02-06T13:12:27.408Z,984.10
2019-02-06T13:14:31.078Z,984.14
2019-02-06T13:15:31.359Z,984.17
2019-02-06T13:17:25.995Z,984.16
2019-02-06T13:18:26.290Z,984.08
2019-02-06T13:20:30.492Z,984.08
2019-02-06T13:21:30.740Z,984.06
2019-02-06T13:23:34.931Z,984.05
2019-02-06T13:24:35.179Z,984.05
2019-02-06T13:26:39.378Z,984.02
2019-02-06T13:27:39.699Z,984.05
2019-02-06T13:29:45.345Z,984.01
2019-02-06T13:30:45.629Z,984.05
2019-02-06T13:32:49.864Z,984.06
2019-02-06T13:33:50.102Z,983.99
2019-02-06T13:35:54.325Z,983.95
2019-02-06T13:36:54.572Z,984.02
2019-02-06T13:38:59.245Z,983.97
2019-02-06T13:39:59.490Z,983.99
2019-02-06T13:42:05.449Z,983.95
2019-02-06T13:43:03.971Z,983.97
2019-02-06T13:45:09.220Z,983.87
2019-02-06T13:46:09.479Z,983.89
2019-02-06T13:48:13.743Z,983.81
2019-02-06T13:49:13.913Z,983.82
2019-02-06T13:51:19.860Z,983.80
2019-02-06T13:52:19.929Z,983.82
2019-02-06T13:54:25.667Z,983.81
2019-02-06T13:55:25.862Z,983.78
2019-02-06T13:57:20.444Z,983.85
2019-02-06T13:58:20.792Z,983.81
2019-02-06T14:00:26.419Z,983.70
2019-02-06T14:01:26.621Z,983.75
2019-02-06T14:03:32.287Z,983.78
2019-02-06T14:04:32.523Z,983.74
2019-02-06T14:06:38.325Z,983.71
2019-02-06T14:07:38.466Z,983.77
2019-02-06T14:09:44.272Z,983.64
2019-02-06T14:10:44.451Z,983.61
2019-02-06T14:12:50.174Z,983.65
2019-02-06T14:13:50.348Z,983.55
2019-02-06T14:15:56.133Z,983.51
2019-02-06T14:16:56.282Z,983.52
2019-02-06T14:19:01.955Z,983.49
2019-02-06T14:20:02.189Z,983.47
2019-02-06T14:22:09.903Z,983.39
2019-02-06T14:23:08.283Z,983.42
2019-02-06T14:25:14.836Z,983.43
2019-02-06T14:26:15.077Z,983.41
2019-02-06T14:28:20.791Z,983.37
2019-02-06T14:29:20.944Z,983.33
2019-02-06T14:31:26.761Z,983.27
2019-02-06T14:32:26.912Z,983.31
2019-02-06T14:34:32.623Z,983.31
2019-02-06T14:35:32.801Z,983.28
2019-02-06T14:37:27.815Z,983.25
2019-02-06T14:38:27.627Z,983.24
2019-02-06T14:40:33.306Z,983.12
2019-02-06T14:41:33.550Z,983.09
2019-02-06T14:43:37.734Z,983.08
2019-02-06T14:44:37.979Z,983.06
2019-02-06T14:46:42.146Z,983.01
2019-02-06T14:47:42.389Z,983.02
2019-02-06T14:49:46.569Z,982.99
2019-02-06T14:50:49.426Z,982.94
2019-02-06T14:52:50.999Z,982.93
2019-02-06T14:53:51.253Z,982.88
2019-02-06T14:55:55.400Z,982.92
2019-02-06T14:56:55.639Z,982.93
2019-02-06T14:58:59.824Z,982.94
2019-02-06T15:00:00.258Z,982.94
2019-02-06T15:02:04.225Z,982.93
2019-02-06T15:03:04.465Z,982.88
2019-02-06T15:05:08.646Z,982.87
2019-02-06T15:06:08.887Z,982.82
2019-02-06T15:08:13.063Z,982.80
2019-02-06T15:09:13.301Z,982.77
2019-02-06T15:11:19.827Z,982.70
2019-02-06T15:12:17.701Z,982.74
2019-02-06T15:14:21.884Z,982.83
2019-02-06T15:15:22.126Z,982.79
2019-02-06T15:17:15.214Z,982.79
2019-02-06T15:18:15.488Z,982.77
2019-02-06T15:20:19.637Z,982.73
2019-02-06T15:21:19.876Z,982.79
2019-02-06T15:23:32.666Z,982.75
2019-02-06T15:24:24.396Z,982.70
2019-02-06T15:26:28.548Z,982.72
2019-02-06T15:27:28.786Z,982.71
2019-02-06T15:29:32.961Z,982.74
2019-02-06T15:30:34.197Z,982.78
2019-02-06T15:32:37.399Z,982.74
2019-02-06T15:33:37.626Z,982.71
2019-02-06T15:35:41.782Z,982.68
2019-02-06T15:36:42.024Z,982.68
2019-02-06T15:38:46.195Z,982.63
2019-02-06T15:39:46.439Z,982.63
2019-02-06T15:41:50.595Z,982.60
2019-02-06T15:42:50.834Z,982.63
2019-02-06T15:44:55.009Z,982.59
2019-02-06T15:45:57.941Z,982.56
2019-02-06T15:47:59.401Z,982.54
2019-02-06T15:48:59.640Z,982.47
2019-02-06T15:51:03.821Z,982.45
2019-02-06T15:52:04.959Z,982.45
2019-02-06T15:54:08.230Z,982.39
2019-02-06T15:55:08.487Z,982.41
2019-02-06T15:57:01.551Z,982.31
2019-02-06T15:58:01.790Z,982.30
2019-02-06T16:00:05.960Z,982.26
2019-02-06T16:01:06.199Z,982.20
2019-02-06T16:03:10.345Z,982.19
2019-02-06T16:04:10.581Z,982.15
2019-02-06T16:06:14.760Z,982.14
2019-02-06T16:07:14.998Z,982.08
2019-02-06T16:09:19.174Z,982.05
2019-02-06T16:10:19.430Z,982.07
2019-02-06T16:12:24.097Z,982.09
2019-02-06T16:13:24.336Z,982.11
2019-02-06T16:15:29.005Z,982.07
2019-02-06T16:16:29.243Z,982.07
2019-02-06T16:18:33.403Z,982.05
2019-02-06T16:19:33.640Z,982.05
2019-02-06T16:21:37.823Z,981.96
2019-02-06T16:22:38.061Z,981.97
2019-02-06T16:24:42.746Z,982.02
2019-02-06T16:25:42.971Z,981.96
2019-02-06T16:27:47.123Z,981.99
2019-02-06T16:28:47.353Z,982.02
2019-02-06T16:30:52.022Z,982.01
2019-02-06T16:31:52.255Z,981.98
2019-02-06T16:33:56.911Z,981.96
2019-02-06T16:34:57.145Z,981.98
2019-02-06T16:36:52.736Z,982.05
2019-02-06T16:37:52.796Z,982.02
2019-02-06T16:39:58.241Z,982.02
2019-02-06T16:40:58.369Z,981.99
2019-02-06T16:43:05.309Z,982.03
2019-02-06T16:44:04.503Z,982.00
2019-02-06T16:46:11.686Z,982.01
2019-02-06T16:47:10.367Z,982.03
2019-02-06T16:49:17.928Z,982.02
2019-02-06T16:50:16.230Z,982.03
2019-02-06T16:52:21.907Z,982.00
2019-02-06T16:53:22.125Z,981.99
2019-02-06T16:55:27.803Z,981.96
2019-02-06T16:56:28.126Z,981.96
2019-02-06T16:58:35.105Z,981.95
2019-02-06T16:59:33.909Z,981.99
2019-02-06T17:01:39.576Z,982.01
2019-02-06T17:02:39.806Z,981.98
2019-02-06T17:04:45.471Z,982.00
2019-02-06T17:05:45.703Z,981.98
2019-02-06T17:07:51.351Z,982.05
2019-02-06T17:08:51.584Z,982.04
2019-02-06T17:10:57.247Z,982.06
2019-02-06T17:12:04.194Z,981.98
2019-02-06T17:14:03.122Z,981.95
2019-02-06T17:15:03.354Z,981.93
2019-02-06T17:16:57.948Z,981.87
2019-02-06T17:17:58.184Z,981.87
2019-02-06T17:20:03.850Z,981.85
2019-02-06T17:21:04.086Z,981.84
2019-02-06T17:23:08.236Z,981.84
2019-02-06T17:24:08.583Z,981.82
2019-02-06T17:26:13.147Z,981.75
2019-02-06T17:27:13.381Z,981.76
2019-02-06T17:29:17.584Z,981.77
2019-02-06T17:30:18.010Z,981.75
2019-02-06T17:32:22.695Z,981.79
2019-02-06T17:33:23.009Z,981.75
2019-02-06T17:35:27.737Z,981.79
2019-02-06T17:36:28.059Z,981.78
2019-02-06T17:38:33.724Z,981.73
2019-02-06T17:39:33.979Z,981.77
2019-02-06T17:41:38.653Z,981.70
2019-02-06T17:42:38.890Z,981.68
2019-02-06T17:44:43.622Z,981.73
2019-02-06T17:45:43.958Z,981.69
2019-02-06T17:47:48.791Z,981.71
2019-02-06T17:48:49.023Z,981.73
2019-02-06T17:50:53.301Z,981.69
2019-02-06T17:51:53.570Z,981.66
2019-02-06T17:53:58.246Z,981.61
2019-02-06T17:54:59.661Z,981.62
2019-02-06T17:58:33.859Z,981.64
2019-02-06T17:59:34.144Z,981.63
2019-02-06T18:01:38.875Z,981.67
2019-02-06T18:02:39.136Z,981.67
2019-02-06T18:04:43.825Z,981.62
2019-02-06T18:05:44.195Z,981.65
2019-02-06T18:07:48.939Z,981.68
2019-02-06T18:08:56.425Z,981.67
2019-02-06T18:10:53.933Z,981.71
2019-02-06T18:11:54.193Z,981.73
2019-02-06T18:13:59.842Z,981.67
2019-02-06T18:15:00.104Z,981.62
2019-02-06T18:16:53.681Z,981.67
2019-02-06T18:17:53.914Z,981.68
2019-02-06T18:19:59.547Z,981.67
2019-02-06T18:20:59.784Z,981.66
2019-02-06T18:23:05.452Z,981.64
2019-02-06T18:24:05.719Z,981.62
2019-02-06T18:26:11.386Z,981.57
2019-02-06T18:27:11.616Z,981.56
2019-02-06T18:29:16.276Z,981.51
2019-02-06T18:30:16.502Z,981.48
2019-02-06T18:32:21.168Z,981.46
2019-02-06T18:33:21.405Z,981.39
2019-02-06T18:35:27.045Z,981.39
2019-02-06T18:36:27.290Z,981.39
2019-02-06T18:38:32.311Z,981.35
2019-02-06T18:39:32.231Z,981.32
2019-02-06T18:41:37.875Z,981.31
2019-02-06T18:42:38.110Z,981.30
2019-02-06T18:44:43.770Z,981.28
2019-02-06T18:45:44.002Z,981.25
2019-02-06T18:47:48.681Z,981.19
2019-02-06T18:48:48.915Z,981.18
2019-02-06T18:50:54.564Z,981.12
2019-02-06T18:51:54.791Z,981.14
2019-02-06T18:53:59.481Z,981.07
2019-02-06T18:54:59.721Z,981.05
2019-02-06T18:56:54.367Z,981.08
2019-02-06T18:57:54.570Z,981.07
2019-02-06T19:00:00.346Z,981.10
2019-02-06T19:01:00.459Z,981.06
2019-02-06T19:03:06.182Z,981.03
2019-02-06T19:04:06.465Z,981.02
2019-02-06T19:06:12.081Z,981.07
2019-02-06T19:07:12.300Z,981.10
2019-02-06T19:09:17.968Z,981.12